createdAt,value
2016-09-23T00:00:31.040Z,17.26
2016-09-23T00:01:31.073Z,17.24
2016-09-23T00:02:31.084Z,17.24
2016-09-23T00:03:31.104Z,17.34
2016-09-23T00:04:31.123Z,17.23
2016-09-23T00:05:31.153Z,17.22
2016-09-23T00:06:31.171Z,17.27
2016-09-23T00:07:31.193Z,17.24
2016-09-23T00:08:31.216Z,17.27
2016-09-23T00:09:31.238Z,17.26
2016-09-23T00:10:31.259Z,17.2
2016-09-23T00:11:31.279Z,17.2
2016-09-23T00:12:31.304Z,17.26
2016-09-23T00:13:31.319Z,17.23
2016-09-23T00:14:31.350Z,17.2
2016-09-23T00:15:31.373Z,17.22
2016-09-23T00:16:31.391Z,17.22
2016-09-23T00:17:31.414Z,17.22
2016-09-23T00:18:31.432Z,17.2
2016-09-23T00:19:31.458Z,17.2
2016-09-23T00:20:31.476Z,17.26
2016-09-23T00:21:31.499Z,17.2
2016-09-23T00:22:31.521Z,17.19
2016-09-23T00:23:31.547Z,17.19
2016-09-23T00:24:31.567Z,17.12
2016-09-23T00:25:31.587Z,17.12
2016-09-23T00:26:31.607Z,17.16
2016-09-23T00:27:31.628Z,17.15
2016-09-23T00:28:31.657Z,17.12
2016-09-23T00:29:31.786Z,17.19
2016-09-23T00:30:31.791Z,17.15
2016-09-23T00:31:31.810Z,17.2
2016-09-23T00:32:31.837Z,17.14
2016-09-23T00:33:31.944Z,17.14
2016-09-23T00:34:31.953Z,17.16
2016-09-23T00:35:31.953Z,17.12
2016-09-23T00:36:31.962Z,17.15
2016-09-23T00:37:31.971Z,17.12
2016-09-23T00:38:31.979Z,17.11
2016-09-23T00:39:31.988Z,17.15
2016-09-23T00:40:32.119Z,17.2
2016-09-23T00:41:32.135Z,17.2
2016-09-23T00:42:32.142Z,17.19
2016-09-23T00:43:32.153Z,17.2
2016-09-23T00:44:32.161Z,17.16
2016-09-23T00:45:32.160Z,17.16
2016-09-23T00:46:32.134Z,17.2
2016-09-23T00:47:32.141Z,17.09
2016-09-23T00:48:32.157Z,17.15
2016-09-23T00:49:32.150Z,17.14
2016-09-23T00:50:32.157Z,17.08
2016-09-23T00:51:32.168Z,17.09
2016-09-23T00:52:32.177Z,17.09
2016-09-23T00:53:32.203Z,17.11
2016-09-23T00:54:32.220Z,17.11
2016-09-23T00:55:32.246Z,17.11
2016-09-23T00:56:32.267Z,17.11
2016-09-23T00:57:32.292Z,17.12
2016-09-23T00:58:32.309Z,17.14
2016-09-23T00:59:32.331Z,17.12
2016-09-23T01:00:32.357Z,17.14
2016-09-23T01:01:32.373Z,17.15
2016-09-23T01:02:32.397Z,17.11
2016-09-23T01:03:32.417Z,17.11
2016-09-23T01:04:32.439Z,17.08
2016-09-23T01:05:32.463Z,17.08
2016-09-23T01:06:32.487Z,17.05
2016-09-23T01:07:32.526Z,17.08
2016-09-23T01:08:32.525Z,17.05
2016-09-23T01:09:32.547Z,17.12
2016-09-23T01:10:32.569Z,17.04
2016-09-23T01:11:32.594Z,17.14
2016-09-23T01:12:32.619Z,17.02
2016-09-23T01:13:32.643Z,17.04
2016-09-23T01:14:32.661Z,17.14
2016-09-23T01:15:32.684Z,17.04
2016-09-23T01:16:32.715Z,17.04
2016-09-23T01:17:32.721Z,17.09
2016-09-23T01:18:32.749Z,17.05
2016-09-23T01:19:32.763Z,17.06
2016-09-23T01:20:32.795Z,16.99
2016-09-23T01:21:32.812Z,17.02
2016-09-23T01:22:32.834Z,17.04
2016-09-23T01:23:32.853Z,17.05
2016-09-23T01:24:32.878Z,17.09
2016-09-23T01:25:32.898Z,17.05
2016-09-23T01:26:32.927Z,17.01
2016-09-23T01:27:32.949Z,17.01
2016-09-23T01:28:32.959Z,17.04
2016-09-23T01:29:32.990Z,16.96
2016-09-23T01:30:33.008Z,16.99
2016-09-23T01:31:33.031Z,16.99
2016-09-23T01:32:33.054Z,17.09
2016-09-23T01:33:33.074Z,16.99
2016-09-23T01:34:33.100Z,16.99
2016-09-23T01:35:33.115Z,17.08
2016-09-23T01:36:33.139Z,16.97
2016-09-23T01:37:33.160Z,17.06
2016-09-23T01:38:33.183Z,17.09
2016-09-23T01:39:33.203Z,17.02
2016-09-23T01:40:33.220Z,17.05
2016-09-23T01:41:33.246Z,17.08
2016-09-23T01:42:33.265Z,16.99
2016-09-23T01:43:33.288Z,17.06
2016-09-23T01:44:33.310Z,17.08
2016-09-23T01:45:33.332Z,17.02
2016-09-23T01:46:33.353Z,17.01
2016-09-23T01:47:33.377Z,16.91
2016-09-23T01:48:33.395Z,17.08
2016-09-23T01:49:33.417Z,17.04
2016-09-23T01:50:33.441Z,17.06
2016-09-23T01:51:33.460Z,17.09
2016-09-23T01:52:33.485Z,16.94
2016-09-23T01:53:33.505Z,17.02
2016-09-23T01:54:33.534Z,16.93
2016-09-23T01:55:33.549Z,17.01
2016-09-23T01:56:33.567Z,17.14
2016-09-23T01:57:33.592Z,16.94
2016-09-23T01:58:33.622Z,16.91
2016-09-23T01:59:33.635Z,17.11
2016-09-23T02:00:33.660Z,17.12
2016-09-23T02:01:33.678Z,17.05
2016-09-23T02:02:33.831Z,16.97
2016-09-23T02:03:33.830Z,17.11
2016-09-23T02:04:33.837Z,17.08
2016-09-23T02:05:33.996Z,16.94
2016-09-23T02:06:34.008Z,17.04
2016-09-23T02:07:34.013Z,16.97
2016-09-23T02:08:34.029Z,17.02
2016-09-23T02:09:34.026Z,16.93
2016-09-23T02:10:34.170Z,17.01
2016-09-23T02:11:34.045Z,17.06
2016-09-23T02:12:34.052Z,17.08
2016-09-23T02:13:34.067Z,17.04
2016-09-23T02:14:34.062Z,17.02
2016-09-23T02:15:34.151Z,17.02
2016-09-23T02:16:34.120Z,16.96
2016-09-23T02:17:34.128Z,16.94
2016-09-23T02:18:34.125Z,16.97
2016-09-23T02:19:34.134Z,16.99
2016-09-23T02:20:34.245Z,16.99
2016-09-23T02:21:34.187Z,16.99
2016-09-23T02:22:34.201Z,16.96
2016-09-23T02:23:34.233Z,16.99
2016-09-23T02:24:34.553Z,17.01
2016-09-23T02:25:34.298Z,16.97
2016-09-23T02:26:34.567Z,17.01
2016-09-23T02:27:34.273Z,16.97
2016-09-23T02:28:34.266Z,16.97
2016-09-23T02:29:34.289Z,17.02
2016-09-23T02:30:34.346Z,17.01
2016-09-23T02:31:34.325Z,17.02
2016-09-23T02:32:34.347Z,17.02
2016-09-23T02:33:34.380Z,16.93
2016-09-23T02:34:34.390Z,17.04
2016-09-23T02:35:34.412Z,16.96
2016-09-23T02:36:34.440Z,17.05
2016-09-23T02:37:34.450Z,16.86
2016-09-23T02:38:34.486Z,16.96
2016-09-23T02:39:34.498Z,16.99
2016-09-23T02:40:34.537Z,16.94
2016-09-23T02:41:34.542Z,16.97
2016-09-23T02:42:34.566Z,16.86
2016-09-23T02:43:34.587Z,16.86
2016-09-23T02:44:34.609Z,16.9
2016-09-23T02:45:34.637Z,16.91
2016-09-23T02:46:34.649Z,16.99
2016-09-23T02:47:34.671Z,16.86
2016-09-23T02:48:34.691Z,16.89
2016-09-23T02:49:34.753Z,16.9
2016-09-23T02:50:34.739Z,16.83
2016-09-23T02:51:34.760Z,16.9
2016-09-23T02:52:34.779Z,16.9
2016-09-23T02:53:34.798Z,16.9
2016-09-23T02:54:34.824Z,16.9
2016-09-23T02:55:34.848Z,16.81
2016-09-23T02:56:34.865Z,16.84
2016-09-23T02:57:34.890Z,16.83
2016-09-23T02:58:34.910Z,16.81
2016-09-23T02:59:34.929Z,16.78
2016-09-23T03:00:34.957Z,16.81
2016-09-23T03:01:34.975Z,16.81
2016-09-23T03:02:34.995Z,16.83
2016-09-23T03:03:35.014Z,16.86
2016-09-23T03:04:35.052Z,16.83
2016-09-23T03:05:35.062Z,16.83
2016-09-23T03:06:35.082Z,16.79
2016-09-23T03:07:35.103Z,16.81
2016-09-23T03:08:35.127Z,16.79
2016-09-23T03:09:35.149Z,16.76
2016-09-23T03:10:35.173Z,16.78
2016-09-23T03:11:35.188Z,16.81
2016-09-23T03:12:35.210Z,16.81
2016-09-23T03:13:35.232Z,16.76
2016-09-23T03:14:35.255Z,16.74
2016-09-23T03:15:35.274Z,16.78
2016-09-23T03:16:35.299Z,16.72
2016-09-23T03:17:35.649Z,16.76
2016-09-23T03:18:35.340Z,16.83
2016-09-23T03:19:35.359Z,16.69
2016-09-23T03:20:35.383Z,16.69
2016-09-23T03:21:35.400Z,16.76
2016-09-23T03:22:35.426Z,16.65
2016-09-23T03:23:35.445Z,16.61
2016-09-23T03:24:35.469Z,16.69
2016-09-23T03:25:35.493Z,16.69
2016-09-23T03:26:35.509Z,16.65
2016-09-23T03:27:35.536Z,16.66
2016-09-23T03:28:35.556Z,16.65
2016-09-23T03:29:35.581Z,16.68
2016-09-23T03:30:35.602Z,16.6
2016-09-23T03:31:35.645Z,16.66
2016-09-23T03:32:35.645Z,16.6
2016-09-23T03:33:35.667Z,16.65
2016-09-23T03:34:35.688Z,16.58
2016-09-23T03:35:35.707Z,16.58
2016-09-23T03:36:35.729Z,16.51
2016-09-23T03:37:35.761Z,16.57
2016-09-23T03:38:35.771Z,16.58
2016-09-23T03:39:36.105Z,16.54
2016-09-23T03:40:35.813Z,16.58
2016-09-23T03:41:35.837Z,16.56
2016-09-23T03:42:35.854Z,16.53
2016-09-23T03:43:35.870Z,16.49
2016-09-23T03:44:35.916Z,16.5
2016-09-23T03:45:35.921Z,16.5
2016-09-23T03:46:35.940Z,16.53
2016-09-23T03:47:35.965Z,16.53
2016-09-23T03:48:35.982Z,16.53
2016-09-23T03:49:36.008Z,16.57
2016-09-23T03:50:36.023Z,16.43
2016-09-23T03:51:36.049Z,16.43
2016-09-23T03:52:36.068Z,16.41
2016-09-23T03:53:36.089Z,16.51
2016-09-23T03:54:36.112Z,16.41
2016-09-23T03:55:36.136Z,16.43
2016-09-23T03:56:36.156Z,16.47
2016-09-23T03:57:36.170Z,16.39
2016-09-23T03:58:36.194Z,16.39
2016-09-23T03:59:36.218Z,16.38
2016-09-23T04:00:36.247Z,16.36
2016-09-23T04:01:36.264Z,16.41
2016-09-23T04:02:36.287Z,16.39
2016-09-23T04:03:36.306Z,16.46
2016-09-23T04:04:36.329Z,16.42
2016-09-23T04:05:36.346Z,16.41
2016-09-23T04:06:36.367Z,16.38
2016-09-23T04:07:36.390Z,16.36
2016-09-23T04:08:36.407Z,16.42
2016-09-23T04:09:36.432Z,16.33
2016-09-23T04:10:36.449Z,16.35
2016-09-23T04:11:36.474Z,16.36
2016-09-23T04:12:36.497Z,16.39
2016-09-23T04:13:36.516Z,16.41
2016-09-23T04:14:36.556Z,16.32
2016-09-23T04:15:36.562Z,16.31
2016-09-23T04:16:36.582Z,16.35
2016-09-23T04:17:36.604Z,16.38
2016-09-23T04:18:36.622Z,16.33
2016-09-23T04:19:36.645Z,16.31
2016-09-23T04:20:36.668Z,16.38
2016-09-23T04:21:36.686Z,16.35
2016-09-23T04:22:36.709Z,16.24
2016-09-23T04:23:36.729Z,16.29
2016-09-23T04:24:36.751Z,16.24
2016-09-23T04:25:36.777Z,16.24
2016-09-23T04:26:36.791Z,16.26
2016-09-23T04:27:36.815Z,16.28
2016-09-23T04:28:36.845Z,16.23
2016-09-23T04:29:36.858Z,16.29
2016-09-23T04:30:36.879Z,16.26
2016-09-23T04:31:36.903Z,16.26
2016-09-23T04:32:36.921Z,16.21
2016-09-23T04:33:36.947Z,16.29
2016-09-23T04:34:36.965Z,16.26
2016-09-23T04:35:36.995Z,16.29
2016-09-23T04:36:37.013Z,16.28
2016-09-23T04:37:37.028Z,16.24
2016-09-23T04:38:37.046Z,16.13
2016-09-23T04:39:37.069Z,16.21
2016-09-23T04:40:37.089Z,16.13
2016-09-23T04:41:37.425Z,16.16
2016-09-23T04:42:37.132Z,16.2
2016-09-23T04:43:37.150Z,16.13
2016-09-23T04:44:37.177Z,16.2
2016-09-23T04:45:37.195Z,16.15
2016-09-23T04:46:37.221Z,16.21
2016-09-23T04:47:37.242Z,16.1
2016-09-23T04:48:37.259Z,16.17
2016-09-23T04:49:37.278Z,16.16
2016-09-23T04:50:37.308Z,16.21
2016-09-23T04:51:37.417Z,16.09
2016-09-23T04:52:37.410Z,16.08
2016-09-23T04:53:37.368Z,16.15
2016-09-23T04:54:37.389Z,16.05
2016-09-23T04:55:37.413Z,16.09
2016-09-23T04:56:37.435Z,16.09
2016-09-23T04:57:37.448Z,16.01
2016-09-23T04:58:37.470Z,16.09
2016-09-23T04:59:37.492Z,16.05
2016-09-23T05:00:37.630Z,16.05
2016-09-23T05:01:37.676Z,16.02
2016-09-23T05:02:37.551Z,16.09
2016-09-23T05:03:37.655Z,16.01
2016-09-23T05:04:37.601Z,16.01
2016-09-23T05:05:37.625Z,15.97
2016-09-23T05:06:37.646Z,15.95
2016-09-23T05:07:37.659Z,15.95
2016-09-23T05:08:37.681Z,15.95
2016-09-23T05:09:37.704Z,15.97
2016-09-23T05:10:37.719Z,15.98
2016-09-23T05:11:37.745Z,16
2016-09-23T05:12:37.769Z,16
2016-09-23T05:13:37.792Z,15.92
2016-09-23T05:14:37.807Z,16
2016-09-23T05:15:38.146Z,15.9
2016-09-23T05:16:37.858Z,15.95
2016-09-23T05:17:37.876Z,15.95
2016-09-23T05:18:37.903Z,16
2016-09-23T05:19:37.912Z,16.01
2016-09-23T05:20:37.943Z,15.97
2016-09-23T05:21:37.955Z,16.1
2016-09-23T05:22:37.977Z,15.91
2016-09-23T05:23:37.998Z,16.02
2016-09-23T05:24:38.020Z,16.01
2016-09-23T05:25:38.039Z,15.97
2016-09-23T05:26:38.075Z,16
2016-09-23T05:27:38.083Z,16.08
2016-09-23T05:28:38.106Z,16.02
2016-09-23T05:29:38.129Z,16.02
2016-09-23T05:30:38.149Z,16
2016-09-23T05:31:38.178Z,16.02
2016-09-23T05:32:38.199Z,16.02
2016-09-23T05:33:38.214Z,16.02
2016-09-23T05:34:38.277Z,16.08
2016-09-23T05:35:38.252Z,16.12
2016-09-23T05:36:38.269Z,16.08
2016-09-23T05:37:38.374Z,16.12
2016-09-23T05:38:38.351Z,16.13
2016-09-23T05:39:38.361Z,16.09
2016-09-23T05:40:38.529Z,16.13
2016-09-23T05:41:38.503Z,16.13
2016-09-23T05:42:38.513Z,16.15
2016-09-23T05:43:38.521Z,16.05
2016-09-23T05:44:38.553Z,16.13
2016-09-23T05:45:38.564Z,16.15
2016-09-23T05:46:38.571Z,16.12
2016-09-23T05:47:38.570Z,16.13
2016-09-23T05:48:38.580Z,16.12
2016-09-23T05:49:38.628Z,16.15
2016-09-23T05:50:38.637Z,16.17
2016-09-23T05:51:38.638Z,16.17
2016-09-23T05:52:38.831Z,16.17
2016-09-23T05:53:38.652Z,16.15
2016-09-23T05:54:38.662Z,16.2
2016-09-23T05:55:38.672Z,16.16
2016-09-23T05:56:38.698Z,16.16
2016-09-23T05:57:38.712Z,16.21
2016-09-23T05:58:38.736Z,16.17
2016-09-23T05:59:38.757Z,16.16
2016-09-23T06:00:38.776Z,16.16
2016-09-23T06:01:38.798Z,16.28
2016-09-23T06:02:38.820Z,16.28
2016-09-23T06:03:38.844Z,16.23
2016-09-23T06:04:38.862Z,16.21
2016-09-23T06:05:38.885Z,16.2
2016-09-23T06:06:38.906Z,16.23
2016-09-23T06:07:38.924Z,16.21
2016-09-23T06:08:38.947Z,16.24
2016-09-23T06:09:38.963Z,16.26
2016-09-23T06:10:38.993Z,16.23
2016-09-23T06:11:39.009Z,16.17
2016-09-23T06:12:39.030Z,16.24
2016-09-23T06:13:39.051Z,16.26
2016-09-23T06:14:39.068Z,16.24
2016-09-23T06:15:39.094Z,16.21
2016-09-23T06:16:39.120Z,16.28
2016-09-23T06:17:39.245Z,16.24
2016-09-23T06:18:39.161Z,16.23
2016-09-23T06:19:39.198Z,16.29
2016-09-23T06:20:39.200Z,16.28
2016-09-23T06:21:39.217Z,16.28
2016-09-23T06:22:39.240Z,16.24
2016-09-23T06:23:39.267Z,16.29
2016-09-23T06:24:39.606Z,16.2
2016-09-23T06:25:39.311Z,16.32
2016-09-23T06:26:39.328Z,16.28
2016-09-23T06:27:39.347Z,16.28
2016-09-23T06:28:39.451Z,16.35
2016-09-23T06:29:39.396Z,16.31
2016-09-23T06:30:39.416Z,16.35
2016-09-23T06:31:39.428Z,16.35
2016-09-23T06:32:39.456Z,16.33
2016-09-23T06:33:39.475Z,16.33
2016-09-23T06:34:39.496Z,16.33
2016-09-23T06:35:39.517Z,16.32
2016-09-23T06:36:39.534Z,16.36
2016-09-23T06:37:39.564Z,16.36
2016-09-23T06:38:39.581Z,16.39
2016-09-23T06:39:39.918Z,16.42
2016-09-23T06:40:39.624Z,16.36
2016-09-23T06:41:39.649Z,16.39
2016-09-23T06:42:39.667Z,16.46
2016-09-23T06:43:39.683Z,16.47
2016-09-23T06:44:39.711Z,16.49
2016-09-23T06:45:39.732Z,16.43
2016-09-23T06:46:39.756Z,16.43
2016-09-23T06:47:39.771Z,16.53
2016-09-23T06:48:39.792Z,16.56
2016-09-23T06:49:39.811Z,16.51
2016-09-23T06:50:39.836Z,16.53
2016-09-23T06:51:39.856Z,16.53
2016-09-23T06:52:39.875Z,16.5
2016-09-23T06:53:39.898Z,16.47
2016-09-23T06:54:39.922Z,16.5
2016-09-23T06:55:39.940Z,16.56
2016-09-23T06:56:39.959Z,16.57
2016-09-23T06:57:39.979Z,16.54
2016-09-23T06:58:40.010Z,16.57
2016-09-23T06:59:40.034Z,16.56
2016-09-23T07:00:40.047Z,16.54
2016-09-23T07:01:40.073Z,16.54
2016-09-23T07:02:40.090Z,16.56
2016-09-23T07:03:40.112Z,16.61
2016-09-23T07:04:40.131Z,16.65
2016-09-23T07:05:40.157Z,16.61
2016-09-23T07:06:40.173Z,16.58
2016-09-23T07:07:40.314Z,16.66
2016-09-23T07:08:40.342Z,16.72
2016-09-23T07:09:40.328Z,16.65
2016-09-23T07:10:40.346Z,16.6
2016-09-23T07:11:40.509Z,16.71
2016-09-23T07:12:40.519Z,16.68
2016-09-23T07:13:40.529Z,16.74
2016-09-23T07:14:40.542Z,16.76
2016-09-23T07:15:40.558Z,16.75
2016-09-23T07:16:40.555Z,16.72
2016-09-23T07:17:40.557Z,16.83
2016-09-23T07:18:40.609Z,16.86
2016-09-23T07:19:40.617Z,16.84
2016-09-23T07:20:40.614Z,16.84
2016-09-23T07:21:40.622Z,16.94
2016-09-23T07:22:40.633Z,16.84
2016-09-23T07:23:40.641Z,16.84
2016-09-23T07:24:40.650Z,16.86
2016-09-23T07:25:40.650Z,17.04
2016-09-23T07:26:40.698Z,17.06
2016-09-23T07:27:40.707Z,17.04
2016-09-23T07:28:40.718Z,17.05
2016-09-23T07:29:40.745Z,17.15
2016-09-23T07:30:40.747Z,17.06
2016-09-23T07:31:40.703Z,17.01
2016-09-23T07:32:40.723Z,17.08
2016-09-23T07:33:40.754Z,17.12
2016-09-23T07:34:40.781Z,17.11
2016-09-23T07:35:40.793Z,17.16
2016-09-23T07:36:40.808Z,17.23
2016-09-23T07:37:40.830Z,17.23
2016-09-23T07:38:40.851Z,17.2
2016-09-23T07:39:40.869Z,17.39
2016-09-23T07:40:40.901Z,17.34
2016-09-23T07:41:40.917Z,17.39
2016-09-23T07:42:40.939Z,17.38
2016-09-23T07:43:40.959Z,17.51
2016-09-23T07:44:40.984Z,17.49
2016-09-23T07:45:41.009Z,17.6
2016-09-23T07:46:41.021Z,17.57
2016-09-23T07:47:41.041Z,17.52
2016-09-23T07:48:41.066Z,17.63
2016-09-23T07:49:41.083Z,17.64
2016-09-23T07:50:41.108Z,17.68
2016-09-23T07:51:41.126Z,17.76
2016-09-23T07:52:41.151Z,17.76
2016-09-23T07:53:41.177Z,17.83
2016-09-23T07:54:41.196Z,17.89
2016-09-23T07:55:41.215Z,17.89
2016-09-23T07:56:41.234Z,17.98
2016-09-23T07:57:41.257Z,17.97
2016-09-23T07:58:41.283Z,18
2016-09-23T07:59:41.298Z,18.04
2016-09-23T08:00:41.326Z,18.16
2016-09-23T08:01:41.341Z,18.07
2016-09-23T08:02:41.367Z,18.19
2016-09-23T08:03:41.391Z,18.22
2016-09-23T08:04:41.419Z,18.18
2016-09-23T08:05:41.431Z,18.33
2016-09-23T08:06:41.451Z,18.28
2016-09-23T08:07:41.493Z,18.38
2016-09-23T08:08:41.499Z,18.4
2016-09-23T08:09:41.520Z,18.38
2016-09-23T08:10:41.541Z,18.4
2016-09-23T08:11:41.570Z,18.45
2016-09-23T08:12:41.583Z,18.5
2016-09-23T08:13:41.600Z,18.6
2016-09-23T08:14:41.627Z,18.65
2016-09-23T08:15:41.646Z,18.55
2016-09-23T08:16:41.667Z,18.7
2016-09-23T08:17:41.693Z,18.63
2016-09-23T08:18:41.711Z,18.74
2016-09-23T08:19:41.736Z,18.7
2016-09-23T08:20:41.758Z,18.68
2016-09-23T08:21:41.787Z,18.77
2016-09-23T08:22:41.798Z,18.77
2016-09-23T08:23:41.822Z,18.83
2016-09-23T08:24:41.841Z,18.83
2016-09-23T08:25:41.862Z,18.84
2016-09-23T08:26:41.890Z,18.93
2016-09-23T08:27:41.909Z,18.88
2016-09-23T08:28:41.937Z,19.04
2016-09-23T08:29:41.951Z,19.04
2016-09-23T08:30:41.975Z,19.04
2016-09-23T08:31:42.000Z,19.07
2016-09-23T08:32:42.021Z,19.15
2016-09-23T08:33:42.044Z,19.19
2016-09-23T08:34:42.064Z,19.16
2016-09-23T08:35:42.081Z,19.24
2016-09-23T08:36:42.106Z,19.33
2016-09-23T08:37:42.128Z,19.33
2016-09-23T08:38:42.148Z,19.4
2016-09-23T08:39:42.171Z,19.44
2016-09-23T08:40:42.192Z,19.58
2016-09-23T08:41:42.217Z,19.45
2016-09-23T08:42:42.352Z,19.52
2016-09-23T08:43:42.351Z,19.63
2016-09-23T08:44:42.370Z,19.59
2016-09-23T08:45:42.400Z,19.56
2016-09-23T08:46:42.418Z,19.59
2016-09-23T08:47:42.505Z,19.64
2016-09-23T08:48:42.516Z,19.73
2016-09-23T08:49:42.513Z,19.71
2016-09-23T08:50:42.665Z,19.84
2016-09-23T08:51:42.543Z,19.84
2016-09-23T08:52:42.675Z,19.84
2016-09-23T08:53:42.687Z,19.91
2016-09-23T08:54:42.687Z,19.96
2016-09-23T08:55:42.696Z,20
2016-09-23T08:56:42.709Z,20.04
2016-09-23T08:57:42.719Z,20.06
2016-09-23T08:58:42.731Z,20.19
2016-09-23T08:59:42.722Z,20.14
2016-09-23T09:00:42.745Z,20.16
2016-09-23T09:01:42.698Z,20.29
2016-09-23T09:02:42.716Z,20.28
2016-09-23T09:03:42.706Z,20.28
2016-09-23T09:04:42.725Z,20.43
2016-09-23T09:05:42.832Z,20.41
2016-09-23T09:06:42.800Z,20.41
2016-09-23T09:07:42.825Z,20.5
2016-09-23T09:08:42.844Z,20.52
2016-09-23T09:09:42.868Z,20.5
2016-09-23T09:10:42.886Z,20.56
2016-09-23T09:11:42.926Z,20.66
2016-09-23T09:12:42.919Z,20.59
2016-09-23T09:13:42.952Z,20.7
2016-09-23T09:14:42.968Z,20.78
2016-09-23T09:15:42.996Z,20.82
2016-09-23T09:16:43.024Z,20.87
2016-09-23T09:17:43.057Z,20.84
2016-09-23T09:18:43.058Z,20.84
2016-09-23T09:19:43.088Z,20.9
2016-09-23T09:20:43.108Z,20.92
2016-09-23T09:21:43.134Z,20.99
2016-09-23T09:22:43.147Z,21.03
2016-09-23T09:23:43.188Z,21.06
2016-09-23T09:24:43.214Z,21.09
2016-09-23T09:25:43.236Z,21.17
2016-09-23T09:26:43.250Z,21.21
2016-09-23T09:27:43.272Z,21.25
2016-09-23T09:28:43.294Z,21.33
2016-09-23T09:29:43.311Z,21.33
2016-09-23T09:30:43.337Z,21.32
2016-09-23T09:31:43.373Z,21.42
2016-09-23T09:32:43.381Z,21.42
2016-09-23T09:33:43.410Z,21.48
2016-09-23T09:34:43.432Z,21.48
2016-09-23T09:35:43.461Z,21.58
2016-09-23T09:36:43.481Z,21.6
2016-09-23T09:37:43.509Z,21.66
2016-09-23T09:38:43.520Z,21.66
2016-09-23T09:39:43.556Z,21.79
2016-09-23T09:40:43.580Z,21.82
2016-09-23T09:41:43.586Z,21.83
2016-09-23T09:42:43.620Z,21.82
2016-09-23T09:43:43.639Z,21.95
2016-09-23T09:44:43.670Z,22.02
2016-09-23T09:45:43.689Z,21.96
2016-09-23T09:46:43.707Z,22.1
2016-09-23T09:47:43.740Z,22.14
2016-09-23T09:48:43.757Z,22.14
2016-09-23T09:49:43.788Z,22.2
2016-09-23T09:50:43.808Z,22.26
2016-09-23T09:52:43.854Z,22.36
2016-09-23T09:53:43.884Z,22.39
2016-09-23T09:54:43.896Z,22.41
2016-09-23T09:55:43.919Z,22.48
2016-09-23T09:56:43.948Z,22.51
2016-09-23T09:57:43.985Z,22.59
2016-09-23T09:58:43.994Z,22.53
2016-09-23T09:59:44.031Z,22.47
2016-09-23T10:00:44.042Z,22.51
2016-09-23T10:01:44.071Z,22.62
2016-09-23T10:02:44.103Z,22.73
2016-09-23T10:03:44.117Z,22.68
2016-09-23T10:04:44.136Z,22.7
2016-09-23T10:05:44.168Z,22.66
2016-09-23T10:06:44.180Z,22.8
2016-09-23T10:07:44.202Z,22.78
2016-09-23T10:08:44.229Z,22.83
2016-09-23T10:09:44.264Z,22.85
2016-09-23T10:10:44.283Z,22.94
2016-09-23T10:11:44.315Z,22.98
2016-09-23T10:12:44.352Z,23.06
2016-09-23T10:13:44.353Z,23
2016-09-23T10:14:44.382Z,23.1
2016-09-23T10:15:44.416Z,23.09
2016-09-23T10:16:44.435Z,23.17
2016-09-23T10:17:44.452Z,23.2
2016-09-23T10:18:44.484Z,23.21
2016-09-23T10:19:44.504Z,23.28
2016-09-23T10:20:44.523Z,23.25
2016-09-23T10:21:44.558Z,23.34
2016-09-23T10:22:44.578Z,23.4
2016-09-23T10:23:44.604Z,23.46
2016-09-23T10:24:44.626Z,23.54
2016-09-23T10:25:44.655Z,23.56
2016-09-23T10:26:44.683Z,23.63
2016-09-23T10:27:44.716Z,23.77
2016-09-23T10:28:44.728Z,23.73
2016-09-23T10:29:44.740Z,23.69
2016-09-23T10:30:44.774Z,23.73
2016-09-23T10:31:44.798Z,23.74
2016-09-23T10:32:44.818Z,23.77
2016-09-23T10:33:44.849Z,23.84
2016-09-23T10:34:44.865Z,23.91
2016-09-23T10:35:44.891Z,23.88
2016-09-23T10:36:44.914Z,24.06
2016-09-23T10:37:44.947Z,24.11
2016-09-23T10:38:44.969Z,24.17
2016-09-23T10:39:44.995Z,24.23
2016-09-23T10:40:45.013Z,24.23
2016-09-23T10:41:45.035Z,24.36
2016-09-23T10:42:45.068Z,24.42
2016-09-23T10:43:45.096Z,24.47
2016-09-23T10:44:45.124Z,24.43
2016-09-23T10:45:45.153Z,24.53
2016-09-23T10:46:45.172Z,24.57
2016-09-23T10:47:45.196Z,24.54
2016-09-23T10:48:45.219Z,24.61
2016-09-23T10:49:45.245Z,24.66
2016-09-23T10:50:45.269Z,24.74
2016-09-23T10:51:45.296Z,24.68
2016-09-23T10:52:45.315Z,24.76
2016-09-23T10:53:45.344Z,24.77
2016-09-23T10:54:45.376Z,24.86
2016-09-23T10:55:45.405Z,24.98
2016-09-23T10:56:45.430Z,24.84
2016-09-23T10:57:45.449Z,24.99
2016-09-23T10:58:45.473Z,24.93
2016-09-23T10:59:45.502Z,25.01
2016-09-23T11:00:45.523Z,25.07
2016-09-23T11:01:45.555Z,25.08
2016-09-23T11:02:45.580Z,25.11
2016-09-23T11:03:45.600Z,25.14
2016-09-23T11:04:45.640Z,25.21
2016-09-23T11:05:45.655Z,25.13
2016-09-23T11:06:45.676Z,25.21
2016-09-23T11:07:45.709Z,25.22
2016-09-23T11:08:45.738Z,25.22
2016-09-23T11:09:45.759Z,25.26
2016-09-23T11:10:45.781Z,25.36
2016-09-23T11:11:45.809Z,25.31
2016-09-23T11:12:45.831Z,25.32
2016-09-23T11:13:45.859Z,25.35
2016-09-23T11:14:45.890Z,25.43
2016-09-23T11:15:45.913Z,25.46
2016-09-23T11:16:45.943Z,25.55
2016-09-23T11:17:45.968Z,25.5
2016-09-23T11:18:45.985Z,25.6
2016-09-23T11:19:46.017Z,25.58
2016-09-23T11:20:46.042Z,25.6
2016-09-23T11:21:46.060Z,25.6
2016-09-23T11:22:46.106Z,25.72
2016-09-23T11:23:46.124Z,25.72
2016-09-23T11:24:46.139Z,25.75
2016-09-23T11:25:46.171Z,25.72
2016-09-23T11:26:46.204Z,25.77
2016-09-23T11:27:46.227Z,25.78
2016-09-23T11:28:46.252Z,25.81
2016-09-23T11:29:46.275Z,25.85
2016-09-23T11:30:46.307Z,25.93
2016-09-23T11:31:46.333Z,25.9
2016-09-23T11:32:46.350Z,25.99
2016-09-23T11:33:46.390Z,25.96
2016-09-23T11:34:46.404Z,25.91
2016-09-23T11:35:46.429Z,26.1
2016-09-23T11:36:46.459Z,26.07
2016-09-23T11:37:46.487Z,26.07
2016-09-23T11:38:46.524Z,26.07
2016-09-23T11:39:46.548Z,26.15
2016-09-23T11:40:46.564Z,26.19
2016-09-23T11:41:46.582Z,26.26
2016-09-23T11:42:46.946Z,26.13
2016-09-23T11:43:46.641Z,26.19
2016-09-23T11:44:46.688Z,26.26
2016-09-23T11:45:46.705Z,26.29
2016-09-23T11:46:46.722Z,26.25
2016-09-23T11:47:46.746Z,26.29
2016-09-23T11:48:46.771Z,26.33
2016-09-23T11:49:46.812Z,26.23
2016-09-23T11:50:46.834Z,26.26
2016-09-23T11:51:46.861Z,26.29
2016-09-23T11:52:46.894Z,26.34
2016-09-23T11:53:46.925Z,26.34
2016-09-23T11:54:46.943Z,26.36
2016-09-23T11:55:46.978Z,26.31
2016-09-23T11:56:46.995Z,26.34
2016-09-23T11:57:47.016Z,26.38
2016-09-23T11:58:47.058Z,26.36
2016-09-23T11:59:47.088Z,26.47
2016-09-23T12:00:47.103Z,26.44
2016-09-23T12:01:47.124Z,26.44
2016-09-23T12:02:47.146Z,26.44
2016-09-23T12:03:47.185Z,26.43
2016-09-23T12:04:47.231Z,26.51
2016-09-23T12:05:47.228Z,26.56
2016-09-23T12:06:47.261Z,26.58
2016-09-23T12:07:47.296Z,26.62
2016-09-23T12:08:47.318Z,26.7
2016-09-23T12:09:47.353Z,26.68
2016-09-23T12:10:47.382Z,26.65
2016-09-23T12:11:47.704Z,26.73
2016-09-23T12:12:47.427Z,26.77
2016-09-23T12:13:47.465Z,26.83
2016-09-23T12:14:47.481Z,26.83
2016-09-23T12:15:47.509Z,26.83
2016-09-23T12:16:47.536Z,26.78
2016-09-23T12:17:47.566Z,26.88
2016-09-23T12:18:47.591Z,26.88
2016-09-23T12:19:47.618Z,26.92
2016-09-23T12:20:47.647Z,26.88
2016-09-23T12:21:47.673Z,26.88
2016-09-23T12:22:47.705Z,26.97
2016-09-23T12:23:47.725Z,27.03
2016-09-23T12:24:47.879Z,26.99
2016-09-23T12:25:47.886Z,27.05
2016-09-23T12:26:47.919Z,27.11
2016-09-23T12:27:47.932Z,27.2
2016-09-23T12:28:47.928Z,27.14
2016-09-23T12:29:47.939Z,27.2
2016-09-23T12:30:47.948Z,27.21
2016-09-23T12:31:47.958Z,27.29
2016-09-23T12:32:47.976Z,27.32
2016-09-23T12:33:48.026Z,27.3
2016-09-23T12:34:48.048Z,27.48
2016-09-23T12:35:48.156Z,27.51
2016-09-23T12:36:48.164Z,27.49
2016-09-23T12:37:48.189Z,27.63
2016-09-23T12:38:48.204Z,27.58
2016-09-23T12:39:48.480Z,27.6
2016-09-23T12:40:48.216Z,27.65
2016-09-23T12:41:48.229Z,27.64
2016-09-23T12:42:48.251Z,27.68
2016-09-23T12:43:48.278Z,27.74
2016-09-23T12:44:48.313Z,27.67
2016-09-23T12:45:48.348Z,27.67
2016-09-23T12:46:48.391Z,27.7
2016-09-23T12:47:48.401Z,27.7
2016-09-23T12:48:48.416Z,27.67
2016-09-23T12:49:48.459Z,27.67
2016-09-23T12:50:48.474Z,27.67
2016-09-23T12:51:48.501Z,27.68
2016-09-23T12:52:48.535Z,27.71
2016-09-23T12:53:48.559Z,27.6
2016-09-23T12:54:48.590Z,27.67
2016-09-23T12:55:48.618Z,27.63
2016-09-23T12:56:48.657Z,27.67